Time;durP1;ratioP1;P1;durP2;ratioP2;P2;SDS_P1;SDS_P2;PMS_P1;PMS_P2;Temp;Humidity;BMP_temperature;BMP_pressure;BME280_temperature;BME280_humidity;BME280_pressure;Samples;Min_cycle;Max_cycle;Signal;HPM_P1;HPM_P2
2022/01/10 00:00:13;;;;;;;;;;;;;;;;;;2081557;28;19909;-80
2022/01/10 00:01:13;;;;;;;;;;;;;;;;;;2090254;28;19909;-80
2022/01/10 00:02:13;;;;;;;;;;;;;;;;;;2090170;28;20346;-80
2022/01/10 00:03:14;;;;;;;;;;;;;;;;;;2090214;28;19919;-81
2022/01/10 00:04:14;;;;;;;;;;;;;;;;;;2081328;28;20449;-80
2022/01/10 00:05:16;;;;;;;;;;;;;;;;;;2073443;28;19924;-81
2022/01/10 00:06:17;;;;;;;;;;;;;;;;;;2073317;28;19913;-80
2022/01/10 00:07:17;;;;;;;;;;;;;;;;;;2081578;28;19982;-80
2022/01/10 00:08:17;;;;;;;;;;;;;;;;;;2090139;28;20262;-80
2022/01/10 00:09:20;;;;;;;;;;;;;;;;;;2090085;28;19917;-80
2022/01/10 00:10:20;;;;;;;;;;;;;;;;;;2081259;28;19909;-80
2022/01/10 00:11:21;;;;;;;;;;;;;;;;;;2081510;28;19917;-80
2022/01/10 00:12:21;;;;;;;;;;;;;;;;;;2090065;28;19924;-80
2022/01/10 00:13:21;;;;;;;;;;;;;;;;;;2090143;28;19909;-80
2022/01/10 00:14:21;;;;;;;;;;;;;;;;;;2090076;28;19924;-80
2022/01/10 00:15:22;;;;;;;;;;;;;;;;;;2090087;28;19920;-80
2022/01/10 00:16:22;;;;;;;;;;;;;;;;;;2081353;28;20412;-80
2022/01/10 00:17:22;;;;;;;;;;;;;;;;;;2073105;28;19909;-80
2022/01/10 00:18:23;;;;;;;;;;;;;;;;;;2081443;28;19909;-80
2022/01/10 00:19:24;;;;;;;;;;;;;;;;;;2081283;28;19905;-80
2022/01/10 00:20:24;;;;;;;;;;;;;;;;;;2081345;28;19909;-80
2022/01/10 00:21:24;;;;;;;;;;;;;;;;;;2089590;28;19920;-80
2022/01/10 00:22:26;;;;;;;;;;;;;;;;;;2089657;28;19908;-80
2022/01/10 00:23:28;;;;;;;;;;;;;;;;;;2090041;28;19943;-80
2022/01/10 00:24:28;;;;;;;;;;;;;;;;;;2081303;28;19909;-80
2022/01/10 00:25:29;;;;;;;;;;;;;;;;;;2081613;28;19909;-80
2022/01/10 00:26:29;;;;;;;;;;;;;;;;;;2089976;28;19962;-80
2022/01/10 00:27:31;;;;;;;;;;;;;;;;;;2089964;28;20003;-79
2022/01/10 00:28:32;;;;;;;;;;;;;;;;;;2090057;28;19923;-81
2022/01/10 00:29:32;;;;;;;;;;;;;;;;;;2081234;28;20397;-80
2022/01/10 00:30:32;;;;;;;;;;;;;;;;;;2081378;28;19932;-80
2022/01/10 00:31:33;;;;;;;;;;;;;;;;;;2089962;28;19924;-80
2022/01/10 00:32:33;;;;;;;;;;;;;;;;;;2090248;28;19916;-80
2022/01/10 00:33:33;;;;;;;;;;;;;;;;;;2089891;28;19913;-80
2022/01/10 00:34:34;;;;;;;;;;;;;;;;;;2081247;28;19983;-81
2022/01/10 00:35:34;;;;;;;;;;;;;;;;;;2081231;28;19909;-80
2022/01/10 00:36:34;;;;;;;;;;;;;;;;;;2081255;28;19909;-79
2022/01/10 00:37:36;;;;;;;;;;;;;;;;;;2072881;28;19914;-80
2022/01/10 00:38:36;;;;;;;;;;;;;;;;;;2073189;28;19959;-79
2022/01/10 00:39:37;;;;;;;;;;;;;;;;;;2089404;28;19909;-79
2022/01/10 00:40:37;;;;;;;;;;;;;;;;;;2081205;28;20530;-80
2022/01/10 00:41:38;;;;;;;;;;;;;;;;;;2081356;28;19909;-80
2022/01/10 00:42:39;;;;;;;;;;;;;;;;;;2081177;28;19917;-80
2022/01/10 00:43:45;;;;;;;;;;;;;;;;;;2081246;28;19971;-80
2022/01/10 00:44:52;;;;;;;;;;;;;;;;;;2089964;28;19908;-80
2022/01/10 00:45:52;;;;;;;;;;;;;;;;;;2081065;28;20378;-80
2022/01/10 00:46:53;;;;;;;;;;;;;;;;;;2081184;28;20041;-81
2022/01/10 00:47:54;;;;;;;;;;;;;;;;;;2089930;28;20311;-80
2022/01/10 00:48:55;;;;;;;;;;;;;;;;;;2089921;28;19909;-79
2022/01/10 00:49:55;;;;;;;;;;;;;;;;;;2089832;28;19909;-79
2022/01/10 00:50:56;;;;;;;;;;;;;;;;;;2090037;28;19923;-79
2022/01/10 00:51:56;;;;;;;;;;;;;;;;;;2081090;28;19924;-79
2022/01/10 00:52:57;;;;;;;;;;;;;;;;;;2081235;28;19913;-79
2022/01/10 00:53:57;;;;;;;;;;;;;;;;;;2081113;28;20378;-79
2022/01/10 00:54:58;;;;;;;;;;;;;;;;;;2072902;28;19913;-79
2022/01/10 00:55:58;;;;;;;;;;;;;;;;;;2081045;28;20334;-80
2022/01/10 00:56:59;;;;;;;;;;;;;;;;;;2080987;28;19981;-81
2022/01/10 00:57:59;;;;;;;;;;;;;;;;;;2081015;28;19940;-81
2022/01/10 00:58:59;;;;;;;;;;;;;;;;;;2089343;28;20407;-79
2022/01/10 01:00:00;;;;;;;;;;;;;;;;;;2081258;28;19940;-80
2022/01/10 01:01:01;;;;;;;;;;;;;;;;;;2081013;28;20330;-80
2022/01/10 01:02:01;;;;;;;;;;;;;;;;;;2072926;28;19909;-80
2022/01/10 01:03:02;;;;;;;;;;;;;;;;;;2081140;28;19917;-80
2022/01/10 01:04:03;;;;;;;;;;;;;;;;;;2081090;28;19909;-79
2022/01/10 01:05:06;;;;;;;;;;;;;;;;;;2081122;28;19913;-80
2022/01/10 01:06:06;;;;;;;;;;;;;;;;;;2089811;28;20011;-80
2022/01/10 01:07:07;;;;;;;;;;;;;;;;;;2081044;28;19979;-80
2022/01/10 01:08:08;;;;;;;;;;;;;;;;;;2072876;28;20125;-80
2022/01/10 01:09:12;;;;;;;;;;;;;;;;;;2081275;28;19913;-80
2022/01/10 01:12:51;;;;;;;;;;;;;;;;;;2090049;28;20003;-80
2022/01/10 01:13:57;;;;;;;;;;;;;;;;;;2089870;28;20258;-78
2022/01/10 01:15:07;;;;;;;;;;;;;;;;;;2090726;28;19924;-80
2022/01/10 01:16:12;;;;;;;;;;;;;;;;;;2090069;28;19909;-80
2022/01/10 01:17:25;;;;;;;;;;;;;;;;;;2080984;28;19920;-79
2022/01/10 01:24:05;;;;;;;;;;;;;;;;;;2090020;28;19908;-80
2022/01/10 01:25:06;;;;;;;;;;;;;;;;;;2089818;28;19909;-80
2022/01/10 01:26:09;;;;;;;;;;;;;;;;;;2089659;28;20007;-79
2022/01/10 01:27:09;;;;;;;;;;;;;;;;;;2081125;28;20024;-80
2022/01/10 01:28:09;;;;;;;;;;;;;;;;;;2072767;28;20390;-80
2022/01/10 01:29:11;;;;;;;;;;;;;;;;;;2072830;28;19914;-80
2022/01/10 01:30:11;;;;;;;;;;;;;;;;;;2081049;28;20295;-80
2022/01/10 01:31:12;;;;;;;;;;;;;;;;;;2081145;28;20059;-80
2022/01/10 01:32:12;;;;;;;;;;;;;;;;;;2081043;28;20342;-80
2022/01/10 01:33:14;;;;;;;;;;;;;;;;;;2080981;28;20011;-80
2022/01/10 01:34:15;;;;;;;;;;;;;;;;;;2073132;28;19949;-80
2022/01/10 01:35:16;;;;;;;;;;;;;;;;;;2073078;28;19959;-79
2022/01/10 01:36:21;;;;;;;;;;;;;;;;;;2081052;28;19924;-80
2022/01/10 01:37:22;;;;;;;;;;;;;;;;;;2089881;28;19905;-80
2022/01/10 01:38:22;;;;;;;;;;;;;;;;;;2089775;28;20035;-80
2022/01/10 01:39:24;;;;;;;;;;;;;;;;;;2089658;28;20368;-80
2022/01/10 01:40:28;;;;;;;;;;;;;;;;;;2089759;28;19962;-80
2022/01/10 01:42:40;;;;;;;;;;;;;;;;;;2081336;28;19909;-80
2022/01/10 01:43:41;;;;;;;;;;;;;;;;;;2089783;28;19905;-80
2022/01/10 01:44:44;;;;;;;;;;;;;;;;;;2080785;28;19991;-80
2022/01/10 01:45:45;;;;;;;;;;;;;;;;;;2081426;28;20359;-80
2022/01/10 01:46:46;;;;;;;;;;;;;;;;;;2089474;28;19908;-80
2022/01/10 01:47:46;;;;;;;;;;;;;;;;;;2089733;28;19909;-78
2022/01/10 01:48:47;;;;;;;;;;;;;;;;;;2089567;28;19917;-80
2022/01/10 01:49:48;;;;;;;;;;;;;;;;;;2089734;28;19909;-78
2022/01/10 01:50:48;;;;;;;;;;;;;;;;;;2089557;28;20288;-79
2022/01/10 01:51:48;;;;;;;;;;;;;;;;;;2089716;28;19943;-80
2022/01/10 01:52:48;;;;;;;;;;;;;;;;;;2080920;28;20473;-80
2022/01/10 01:53:49;;;;;;;;;;;;;;;;;;2081019;28;19909;-80
2022/01/10 01:54:49;;;;;;;;;;;;;;;;;;2091244;28;19920;-81
2022/01/10 01:55:50;;;;;;;;;;;;;;;;;;2091292;28;19908;-80
2022/01/10 01:56:51;;;;;;;;;;;;;;;;;;2091388;28;19927;-80
2022/01/10 01:57:51;;;;;;;;;;;;;;;;;;2091125;28;19972;-79
2022/01/10 01:58:53;;;;;;;;;;;;;;;;;;2091122;28;19920;-80
2022/01/10 01:59:54;;;;;;;;;;;;;;;;;;2091249;28;19913;-80
2022/01/10 02:00:54;;;;;;;;;;;;;;;;;;2082466;28;19920;-81
2022/01/10 02:01:54;;;;;;;;;;;;;;;;;;2082480;28;19902;-79
2022/01/10 02:02:54;;;;;;;;;;;;;;;;;;2082417;28;19924;-80
2022/01/10 02:03:55;;;;;;;;;;;;;;;;;;2082529;28;20333;-79
2022/01/10 02:04:55;;;;;;;;;;;;;;;;;;2091089;28;20361;-80
2022/01/10 02:05:55;;;;;;;;;;;;;;;;;;2091147;28;19916;-80
2022/01/10 02:06:56;;;;;;;;;;;;;;;;;;2082427;28;20027;-80
2022/01/10 02:07:56;;;;;;;;;;;;;;;;;;2074226;28;19917;-80
2022/01/10 02:08:56;;;;;;;;;;;;;;;;;;2082494;28;19919;-80
2022/01/10 02:09:59;;;;;;;;;;;;;;;;;;2091158;28;19977;-81
2022/01/10 02:10:59;;;;;;;;;;;;;;;;;;2091124;28;20340;-80
2022/01/10 02:12:00;;;;;;;;;;;;;;;;;;2091084;28;19999;-80
2022/01/10 02:13:00;;;;;;;;;;;;;;;;;;2082299;28;19909;-80
2022/01/10 02:14:01;;;;;;;;;;;;;;;;;;2082436;28;19915;-79
2022/01/10 02:15:01;;;;;;;;;;;;;;;;;;2082328;28;19967;-79
2022/01/10 02:16:04;;;;;;;;;;;;;;;;;;2082373;28;19911;-79
2022/01/10 02:17:05;;;;;;;;;;;;;;;;;;2091035;28;20393;-79
2022/01/10 02:18:05;;;;;;;;;;;;;;;;;;2090982;28;19912;-79
2022/01/10 02:19:05;;;;;;;;;;;;;;;;;;2091019;28;19919;-79
2022/01/10 02:20:06;;;;;;;;;;;;;;;;;;2090925;28;19923;-79
2022/01/10 02:21:09;;;;;;;;;;;;;;;;;;2082364;28;19995;-79
2022/01/10 02:22:11;;;;;;;;;;;;;;;;;;2082464;28;19913;-79
2022/01/10 02:23:12;;;;;;;;;;;;;;;;;;2091221;28;20288;-79
2022/01/10 02:24:12;;;;;;;;;;;;;;;;;;2090981;28;19909;-80
2022/01/10 02:25:12;;;;;;;;;;;;;;;;;;2090977;28;20273;-79
2022/01/10 02:26:13;;;;;;;;;;;;;;;;;;2090835;28;19919;-79
2022/01/10 02:27:14;;;;;;;;;;;;;;;;;;2091032;28;19909;-79
2022/01/10 02:28:14;;;;;;;;;;;;;;;;;;2082265;28;19917;-80
2022/01/10 02:29:15;;;;;;;;;;;;;;;;;;2082235;28;20080;-80
2022/01/10 02:30:15;;;;;;;;;;;;;;;;;;2082189;28;19909;-80
2022/01/10 02:31:16;;;;;;;;;;;;;;;;;;2074070;28;19914;-80
2022/01/10 02:32:17;;;;;;;;;;;;;;;;;;2074034;28;19913;-80
2022/01/10 02:33:17;;;;;;;;;;;;;;;;;;2074084;28;19909;-80
2022/01/10 02:34:19;;;;;;;;;;;;;;;;;;2082301;28;20342;-80
2022/01/10 02:35:25;;;;;;;;;;;;;;;;;;2090960;28;19913;-80
2022/01/10 02:36:28;;;;;;;;;;;;;;;;;;2090983;28;20316;-80
2022/01/10 02:37:29;;;;;;;;;;;;;;;;;;2082047;28;19920;-80
2022/01/10 02:38:30;;;;;;;;;;;;;;;;;;2082263;28;20358;-80
2022/01/10 02:39:30;;;;;;;;;;;;;;;;;;2090969;28;19909;-80
2022/01/10 02:40:32;;;;;;;;;;;;;;;;;;2082130;28;20408;-80
2022/01/10 02:41:38;;;;;;;;;;;;;;;;;;2082456;28;19909;-80
2022/01/10 02:42:38;;;;;;;;;;;;;;;;;;2090915;28;19909;-80
2022/01/10 02:43:38;;;;;;;;;;;;;;;;;;2090879;28;20369;-80
2022/01/10 02:44:38;;;;;;;;;;;;;;;;;;2090818;28;19982;-80
2022/01/10 02:45:39;;;;;;;;;;;;;;;;;;2090794;28;19959;-80
2022/01/10 02:46:39;;;;;;;;;;;;;;;;;;2090764;28;19999;-80
2022/01/10 02:47:40;;;;;;;;;;;;;;;;;;2090820;28;19983;-80
2022/01/10 02:48:40;;;;;;;;;;;;;;;;;;2090895;28;20329;-80
2022/01/10 02:49:41;;;;;;;;;;;;;;;;;;2090718;28;19908;-80
2022/01/10 02:50:41;;;;;;;;;;;;;;;;;;2082117;28;19909;-80
2022/01/10 02:51:42;;;;;;;;;;;;;;;;;;2082109;28;20427;-80
2022/01/10 02:52:42;;;;;;;;;;;;;;;;;;2082100;28;19916;-80
2022/01/10 02:53:42;;;;;;;;;;;;;;;;;;2082053;28;19957;-80
2022/01/10 02:54:43;;;;;;;;;;;;;;;;;;2090770;28;19923;-80
2022/01/10 02:55:43;;;;;;;;;;;;;;;;;;2090671;28;20338;-80
2022/01/10 02:56:51;;;;;;;;;;;;;;;;;;2090829;28;20408;-80
2022/01/10 02:57:51;;;;;;;;;;;;;;;;;;2091379;28;19982;-80
2022/01/10 02:58:52;;;;;;;;;;;;;;;;;;2090812;28;19912;-80
2022/01/10 02:59:52;;;;;;;;;;;;;;;;;;2090775;28;19958;-80
2022/01/10 03:00:52;;;;;;;;;;;;;;;;;;2082190;28;20004;-80
2022/01/10 03:01:54;;;;;;;;;;;;;;;;;;2073755;28;20178;-80
2022/01/10 03:02:55;;;;;;;;;;;;;;;;;;2082066;28;20377;-80
2022/01/10 03:03:55;;;;;;;;;;;;;;;;;;2082073;28;19909;-79
2022/01/10 03:04:55;;;;;;;;;;;;;;;;;;2081841;28;19939;-80
2022/01/10 03:05:56;;;;;;;;;;;;;;;;;;2072536;28;19910;-80
2022/01/10 03:06:58;;;;;;;;;;;;;;;;;;2082073;28;19913;-80
2022/01/10 03:07:59;;;;;;;;;;;;;;;;;;2081879;28;20370;-80
2022/01/10 03:09:05;;;;;;;;;;;;;;;;;;2081978;28;19913;-80
2022/01/10 03:10:06;;;;;;;;;;;;;;;;;;2091014;28;19962;-80
2022/01/10 03:11:06;;;;;;;;;;;;;;;;;;2081950;28;19992;-80
2022/01/10 03:12:07;;;;;;;;;;;;;;;;;;2081960;28;19916;-79
2022/01/10 03:13:10;;;;;;;;;;;;;;;;;;2081848;28;19940;-80
2022/01/10 03:14:12;;;;;;;;;;;;;;;;;;2082352;28;19909;-79
2022/01/10 03:15:12;;;;;;;;;;;;;;;;;;2090618;28;19916;-79
2022/01/10 03:16:12;;;;;;;;;;;;;;;;;;2081839;28;19923;-79
2022/01/10 03:17:13;;;;;;;;;;;;;;;;;;2081968;28;20289;-81
2022/01/10 03:18:13;;;;;;;;;;;;;;;;;;2090568;28;19913;-80
2022/01/10 03:19:13;;;;;;;;;;;;;;;;;;2081894;28;19908;-80
2022/01/10 03:20:14;;;;;;;;;;;;;;;;;;2081873;28;20003;-80
2022/01/10 03:21:16;;;;;;;;;;;;;;;;;;2090755;28;19944;-80
2022/01/10 03:22:17;;;;;;;;;;;;;;;;;;2090575;28;19978;-80
2022/01/10 03:23:17;;;;;;;;;;;;;;;;;;2081875;28;19916;-80
2022/01/10 03:24:17;;;;;;;;;;;;;;;;;;2073633;28;19914;-80
2022/01/10 03:25:17;;;;;;;;;;;;;;;;;;2073576;28;19909;-80
2022/01/10 03:26:18;;;;;;;;;;;;;;;;;;2081756;28;19913;-80
2022/01/10 03:27:18;;;;;;;;;;;;;;;;;;2090580;28;20360;-80
2022/01/10 03:28:19;;;;;;;;;;;;;;;;;;2081831;28;20000;-79
2022/01/10 03:29:19;;;;;;;;;;;;;;;;;;2073648;28;20007;-80
2022/01/10 03:30:19;;;;;;;;;;;;;;;;;;2081947;28;19909;-80
2022/01/10 03:31:20;;;;;;;;;;;;;;;;;;2090594;28;19940;-80
2022/01/10 03:32:20;;;;;;;;;;;;;;;;;;2090546;28;20109;-80
2022/01/10 03:33:20;;;;;;;;;;;;;;;;;;2090479;28;19909;-80
2022/01/10 03:34:21;;;;;;;;;;;;;;;;;;2090712;28;20518;-80
2022/01/10 03:35:21;;;;;;;;;;;;;;;;;;2090438;28;20003;-80
2022/01/10 03:36:21;;;;;;;;;;;;;;;;;;2090455;28;19999;-80
2022/01/10 03:37:21;;;;;;;;;;;;;;;;;;2090406;28;19909;-80
2022/01/10 03:38:22;;;;;;;;;;;;;;;;;;2090782;28;20365;-81
2022/01/10 03:39:22;;;;;;;;;;;;;;;;;;2090545;28;19918;-80
2022/01/10 03:40:22;;;;;;;;;;;;;;;;;;2090366;28;19919;-80
2022/01/10 03:41:23;;;;;;;;;;;;;;;;;;2090468;28;19908;-80
2022/01/10 03:42:23;;;;;;;;;;;;;;;;;;2090361;28;19909;-80
2022/01/10 03:43:23;;;;;;;;;;;;;;;;;;2081657;28;19913;-80
2022/01/10 03:44:24;;;;;;;;;;;;;;;;;;2081606;28;19909;-80
2022/01/10 03:45:24;;;;;;;;;;;;;;;;;;2081652;28;19920;-81
2022/01/10 03:46:25;;;;;;;;;;;;;;;;;;2073462;28;19949;-80
2022/01/10 03:47:26;;;;;;;;;;;;;;;;;;2073327;28;20358;-80
2022/01/10 03:48:26;;;;;;;;;;;;;;;;;;2081671;28;19913;-80
2022/01/10 03:49:26;;;;;;;;;;;;;;;;;;2081576;28;20434;-80
2022/01/10 03:50:27;;;;;;;;;;;;;;;;;;2073369;28;19917;-80
2022/01/10 03:51:27;;;;;;;;;;;;;;;;;;2081599;28;19909;-80
2022/01/10 03:52:27;;;;;;;;;;;;;;;;;;2090265;28;19919;-80
2022/01/10 03:53:28;;;;;;;;;;;;;;;;;;2090530;28;19991;-80
2022/01/10 03:54:29;;;;;;;;;;;;;;;;;;2090376;28;20342;-80
2022/01/10 03:55:29;;;;;;;;;;;;;;;;;;2090341;28;19913;-80
2022/01/10 03:56:30;;;;;;;;;;;;;;;;;;2090253;28;19909;-80
2022/01/10 03:57:31;;;;;;;;;;;;;;;;;;2090492;28;20389;-80
2022/01/10 03:58:31;;;;;;;;;;;;;;;;;;2090273;28;19908;-80
2022/01/10 03:59:32;;;;;;;;;;;;;;;;;;2090474;28;20011;-79
2022/01/10 04:00:32;;;;;;;;;;;;;;;;;;2090237;28;19920;-80
2022/01/10 04:01:33;;;;;;;;;;;;;;;;;;2090351;28;19908;-80
2022/01/10 04:02:34;;;;;;;;;;;;;;;;;;2090246;28;19909;-80
2022/01/10 04:03:37;;;;;;;;;;;;;;;;;;2090421;28;20023;-80
2022/01/10 04:04:38;;;;;;;;;;;;;;;;;;2090303;28;19913;-80
2022/01/10 04:05:39;;;;;;;;;;;;;;;;;;2090213;28;19908;-80
2022/01/10 04:06:41;;;;;;;;;;;;;;;;;;2081580;28;19909;-80
2022/01/10 04:07:43;;;;;;;;;;;;;;;;;;2082125;28;19944;-80
2022/01/10 04:08:44;;;;;;;;;;;;;;;;;;2090489;28;19909;-80
2022/01/10 04:09:44;;;;;;;;;;;;;;;;;;2090406;28;19943;-80
2022/01/10 04:10:44;;;;;;;;;;;;;;;;;;2090482;28;20250;-80
2022/01/10 04:11:45;;;;;;;;;;;;;;;;;;2090504;28;20321;-80
2022/01/10 04:12:45;;;;;;;;;;;;;;;;;;2090259;28;19917;-81
2022/01/10 04:13:45;;;;;;;;;;;;;;;;;;2090268;28;19909;-80
2022/01/10 04:14:46;;;;;;;;;;;;;;;;;;2090347;28;19909;-80
2022/01/10 04:15:46;;;;;;;;;;;;;;;;;;2081520;28;19913;-80
2022/01/10 04:16:46;;;;;;;;;;;;;;;;;;2081272;28;19913;-80
2022/01/10 04:17:52;;;;;;;;;;;;;;;;;;2090243;28;20366;-79
2022/01/10 04:18:52;;;;;;;;;;;;;;;;;;2091400;28;19909;-79
2022/01/10 04:19:53;;;;;;;;;;;;;;;;;;2090251;28;19908;-80
2022/01/10 04:20:53;;;;;;;;;;;;;;;;;;2090262;28;19987;-79
2022/01/10 04:21:53;;;;;;;;;;;;;;;;;;2090204;28;20409;-81
2022/01/10 04:22:53;;;;;;;;;;;;;;;;;;2090299;28;19909;-79
2022/01/10 04:23:54;;;;;;;;;;;;;;;;;;2090206;28;20293;-80
2022/01/10 04:24:54;;;;;;;;;;;;;;;;;;2090106;28;19997;-80
2022/01/10 04:25:57;;;;;;;;;;;;;;;;;;2090078;28;19908;-80
2022/01/10 04:26:57;;;;;;;;;;;;;;;;;;2090085;28;19913;-79
2022/01/10 04:27:57;;;;;;;;;;;;;;;;;;2090073;28;20338;-79
2022/01/10 04:28:57;;;;;;;;;;;;;;;;;;2081374;28;19913;-79
2022/01/10 04:29:58;;;;;;;;;;;;;;;;;;2081352;28;20354;-80
2022/01/10 04:30:59;;;;;;;;;;;;;;;;;;2081340;28;19908;-79
2022/01/10 04:32:00;;;;;;;;;;;;;;;;;;2073030;28;19909;-79
2022/01/10 04:33:02;;;;;;;;;;;;;;;;;;2081317;28;19917;-79
2022/01/10 04:34:02;;;;;;;;;;;;;;;;;;2081261;28;19920;-79
2022/01/10 04:35:02;;;;;;;;;;;;;;;;;;2081396;28;19920;-79
2022/01/10 04:36:03;;;;;;;;;;;;;;;;;;2090081;28;19979;-79
2022/01/10 04:37:04;;;;;;;;;;;;;;;;;;2089943;28;19919;-79
2022/01/10 04:38:04;;;;;;;;;;;;;;;;;;2089944;28;20427;-79
2022/01/10 04:39:04;;;;;;;;;;;;;;;;;;2081302;28;20353;-79
2022/01/10 04:40:05;;;;;;;;;;;;;;;;;;2072976;28;20170;-79
2022/01/10 04:41:06;;;;;;;;;;;;;;;;;;2081420;28;19908;-80
2022/01/10 04:42:06;;;;;;;;;;;;;;;;;;2081206;28;20368;-79
2022/01/10 04:43:06;;;;;;;;;;;;;;;;;;2081467;28;19960;-79
2022/01/10 04:44:07;;;;;;;;;;;;;;;;;;2089906;28;20349;-80
2022/01/10 04:45:08;;;;;;;;;;;;;;;;;;2089820;28;19944;-81
2022/01/10 04:46:08;;;;;;;;;;;;;;;;;;2089775;28;19909;-79
2022/01/10 04:47:08;;;;;;;;;;;;;;;;;;2089895;28;19916;-80
2022/01/10 04:48:09;;;;;;;;;;;;;;;;;;2089911;28;19971;-79
2022/01/10 04:49:17;;;;;;;;;;;;;;;;;;2081156;28;20004;-79
2022/01/10 04:51:21;;;;;;;;;;;;;;;;;;2081555;28;19947;-79
2022/01/10 04:52:21;;;;;;;;;;;;;;;;;;2089956;28;19942;-78
2022/01/10 04:53:21;;;;;;;;;;;;;;;;;;2089876;28;19995;-79
2022/01/10 04:54:22;;;;;;;;;;;;;;;;;;2081126;28;20040;-79
2022/01/10 04:55:24;;;;;;;;;;;;;;;;;;2081310;28;20367;-80
2022/01/10 04:56:24;;;;;;;;;;;;;;;;;;2089809;28;19917;-79
2022/01/10 04:57:25;;;;;;;;;;;;;;;;;;2081053;28;19917;-79
2022/01/10 04:58:25;;;;;;;;;;;;;;;;;;2081191;28;20339;-80
2022/01/10 04:59:25;;;;;;;;;;;;;;;;;;2089776;28;20358;-79
2022/01/10 05:00:25;;;;;;;;;;;;;;;;;;2089659;28;19909;-78
2022/01/10 05:01:26;;;;;;;;;;;;;;;;;;2089963;28;19908;-80
2022/01/10 05:02:26;;;;;;;;;;;;;;;;;;2089794;28;19956;-81
2022/01/10 05:03:26;;;;;;;;;;;;;;;;;;2081054;28;19944;-80
2022/01/10 05:04:26;;;;;;;;;;;;;;;;;;2072950;28;20478;-81
2022/01/10 05:05:27;;;;;;;;;;;;;;;;;;2081090;28;19991;-80
2022/01/10 05:06:27;;;;;;;;;;;;;;;;;;2089776;28;19932;-80
2022/01/10 05:07:27;;;;;;;;;;;;;;;;;;2089732;28;19908;-80
2022/01/10 05:08:28;;;;;;;;;;;;;;;;;;2090165;28;19920;-79
2022/01/10 05:09:28;;;;;;;;;;;;;;;;;;2081034;28;20370;-78
2022/01/10 05:10:28;;;;;;;;;;;;;;;;;;2072966;28;20048;-80
2022/01/10 05:11:29;;;;;;;;;;;;;;;;;;2081316;28;19909;-80
2022/01/10 05:12:29;;;;;;;;;;;;;;;;;;2081087;28;19963;-80
2022/01/10 05:13:29;;;;;;;;;;;;;;;;;;2081029;28;20031;-80
2022/01/10 05:14:31;;;;;;;;;;;;;;;;;;2089673;28;20377;-80
2022/01/10 05:15:32;;;;;;;;;;;;;;;;;;2089564;28;19909;-80
2022/01/10 05:16:32;;;;;;;;;;;;;;;;;;2089818;28;19909;-80
2022/01/10 05:17:32;;;;;;;;;;;;;;;;;;2089623;28;19999;-80
2022/01/10 05:18:33;;;;;;;;;;;;;;;;;;2089783;28;20350;-80
2022/01/10 05:19:33;;;;;;;;;;;;;;;;;;2081139;28;19921;-80
2022/01/10 05:20:33;;;;;;;;;;;;;;;;;;2081033;28;20014;-80
2022/01/10 05:21:33;;;;;;;;;;;;;;;;;;2089923;28;19908;-80
2022/01/10 05:22:34;;;;;;;;;;;;;;;;;;2080995;28;19912;-80
2022/01/10 05:23:34;;;;;;;;;;;;;;;;;;2081052;28;20004;-80
2022/01/10 05:24:34;;;;;;;;;;;;;;;;;;2089670;28;19909;-80
2022/01/10 05:25:39;;;;;;;;;;;;;;;;;;2089647;28;20342;-80
2022/01/10 05:26:39;;;;;;;;;;;;;;;;;;2080928;28;19909;-80
2022/01/10 05:27:40;;;;;;;;;;;;;;;;;;2081042;28;20338;-81
2022/01/10 05:28:40;;;;;;;;;;;;;;;;;;2089688;28;19908;-80
2022/01/10 05:29:40;;;;;;;;;;;;;;;;;;2091246;28;19909;-80
2022/01/10 05:30:41;;;;;;;;;;;;;;;;;;2082602;28;19909;-80
2022/01/10 05:31:41;;;;;;;;;;;;;;;;;;2082866;28;19956;-80
2022/01/10 05:32:42;;;;;;;;;;;;;;;;;;2091576;28;20357;-80
2022/01/10 05:33:42;;;;;;;;;;;;;;;;;;2082683;28;19909;-80
2022/01/10 05:34:42;;;;;;;;;;;;;;;;;;2082726;28;20425;-79
2022/01/10 05:35:45;;;;;;;;;;;;;;;;;;2091386;28;19962;-79
2022/01/10 05:36:46;;;;;;;;;;;;;;;;;;2082511;28;20361;-79
2022/01/10 05:37:46;;;;;;;;;;;;;;;;;;2074382;28;19917;-80
2022/01/10 05:38:46;;;;;;;;;;;;;;;;;;2082341;28;19917;-79
2022/01/10 05:39:46;;;;;;;;;;;;;;;;;;2091344;28;19956;-79
2022/01/10 05:40:47;;;;;;;;;;;;;;;;;;2091337;28;19924;-79
2022/01/10 05:41:47;;;;;;;;;;;;;;;;;;2091403;28;19908;-79
2022/01/10 05:42:50;;;;;;;;;;;;;;;;;;2091314;28;19977;-79
2022/01/10 05:43:50;;;;;;;;;;;;;;;;;;2091445;28;19908;-80
2022/01/10 05:44:50;;;;;;;;;;;;;;;;;;2091191;28;19909;-80
2022/01/10 05:45:51;;;;;;;;;;;;;;;;;;2095259;28;19968;-80
2022/01/10 05:46:51;;;;;;;;;;;;;;;;;;2099609;28;20298;-80
2022/01/10 05:47:52;;;;;;;;;;;;;;;;;;2099692;28;19909;-80
2022/01/10 05:48:54;;;;;;;;;;;;;;;;;;2099515;28;19908;-80
2022/01/10 05:50:00;;;;;;;;;;;;;;;;;;2099652;28;19908;-80
2022/01/10 05:51:01;;;;;;;;;;;;;;;;;;2099503;28;19908;-79
2022/01/10 05:52:01;;;;;;;;;;;;;;;;;;2099548;28;20343;-79
2022/01/10 05:53:02;;;;;;;;;;;;;;;;;;2099467;28;19908;-79
2022/01/10 05:54:04;;;;;;;;;;;;;;;;;;2090681;28;20458;-79
2022/01/10 05:55:05;;;;;;;;;;;;;;;;;;2082590;28;20409;-79
2022/01/10 05:56:05;;;;;;;;;;;;;;;;;;2090789;28;19901;-79
2022/01/10 05:57:06;;;;;;;;;;;;;;;;;;2099403;28;19952;-79
2022/01/10 05:58:06;;;;;;;;;;;;;;;;;;2090640;28;19935;-79
2022/01/10 05:59:06;;;;;;;;;;;;;;;;;;2082491;28;19913;-80
2022/01/10 06:00:07;;;;;;;;;;;;;;;;;;2090750;28;20404;-80
2022/01/10 06:01:07;;;;;;;;;;;;;;;;;;2099480;28;19979;-79
2022/01/10 06:02:07;;;;;;;;;;;;;;;;;;2090722;28;20016;-78
2022/01/10 06:03:08;;;;;;;;;;;;;;;;;;2082453;28;19917;-80
2022/01/10 06:04:08;;;;;;;;;;;;;;;;;;2090610;28;19999;-80
2022/01/10 06:05:09;;;;;;;;;;;;;;;;;;2099483;28;19923;-80
2022/01/10 06:06:10;;;;;;;;;;;;;;;;;;2090454;28;19913;-80
2022/01/10 06:07:10;;;;;;;;;;;;;;;;;;2090706;28;20363;-81
2022/01/10 06:08:10;;;;;;;;;;;;;;;;;;2099427;28;19946;-80
2022/01/10 06:09:11;;;;;;;;;;;;;;;;;;2099359;28;19904;-81
2022/01/10 06:10:11;;;;;;;;;;;;;;;;;;2099300;28;19915;-80
2022/01/10 06:11:11;;;;;;;;;;;;;;;;;;2090736;28;19994;-81
2022/01/10 06:12:12;;;;;;;;;;;;;;;;;;2090365;28;20100;-80
2022/01/10 06:13:12;;;;;;;;;;;;;;;;;;2099264;28;19908;-79
2022/01/10 06:14:12;;;;;;;;;;;;;;;;;;2099100;28;20390;-80
2022/01/10 06:15:12;;;;;;;;;;;;;;;;;;2098992;28;19919;-79
2022/01/10 06:16:13;;;;;;;;;;;;;;;;;;2089621;28;19915;-79
2022/01/10 06:17:13;;;;;;;;;;;;;;;;;;2089988;28;19931;-79
2022/01/10 06:18:13;;;;;;;;;;;;;;;;;;2099228;28;20353;-80
2022/01/10 06:19:14;;;;;;;;;;;;;;;;;;2099303;28;19947;-79
2022/01/10 06:20:15;;;;;;;;;;;;;;;;;;2099292;28;19955;-79
2022/01/10 06:21:15;;;;;;;;;;;;;;;;;;2099157;28;20065;-79
2022/01/10 06:22:15;;;;;;;;;;;;;;;;;;2099281;28;19908;-79
2022/01/10 06:23:18;;;;;;;;;;;;;;;;;;2089982;28;19927;-79
2022/01/10 06:24:18;;;;;;;;;;;;;;;;;;2081869;28;20380;-80
2022/01/10 06:25:21;;;;;;;;;;;;;;;;;;2090445;28;19927;-79
2022/01/10 06:26:23;;;;;;;;;;;;;;;;;;2098901;28;19920;-78
2022/01/10 06:27:23;;;;;;;;;;;;;;;;;;2090025;28;19908;-80
2022/01/10 06:28:24;;;;;;;;;;;;;;;;;;2090425;28;19909;-80
2022/01/10 06:29:24;;;;;;;;;;;;;;;;;;2099224;28;19901;-78
2022/01/10 06:30:24;;;;;;;;;;;;;;;;;;2099244;28;20335;-79
2022/01/10 06:31:25;;;;;;;;;;;;;;;;;;2099056;28;19993;-78
2022/01/10 06:32:25;;;;;;;;;;;;;;;;;;2099201;28;20364;-80
2022/01/10 06:33:26;;;;;;;;;;;;;;;;;;2099141;28;19919;-79
2022/01/10 06:34:26;;;;;;;;;;;;;;;;;;2099235;28;19908;-79
2022/01/10 06:35:26;;;;;;;;;;;;;;;;;;2098991;28;19934;-80
2022/01/10 06:36:27;;;;;;;;;;;;;;;;;;2099226;28;20344;-81
2022/01/10 06:37:27;;;;;;;;;;;;;;;;;;2090291;28;20019;-81
2022/01/10 06:38:27;;;;;;;;;;;;;;;;;;2090562;28;20298;-79
2022/01/10 06:39:30;;;;;;;;;;;;;;;;;;2099012;28;19909;-79
2022/01/10 06:40:30;;;;;;;;;;;;;;;;;;2098947;28;19916;-79
2022/01/10 06:41:31;;;;;;;;;;;;;;;;;;2098935;28;20093;-79
2022/01/10 06:42:32;;;;;;;;;;;;;;;;;;2099137;28;19934;-79
2022/01/10 06:43:32;;;;;;;;;;;;;;;;;;2098975;28;20387;-80
2022/01/10 06:44:32;;;;;;;;;;;;;;;;;;2099242;28;20413;-80
2022/01/10 06:45:34;;;;;;;;;;;;;;;;;;2099026;28;19923;-81
2022/01/10 06:46:34;;;;;;;;;;;;;;;;;;2099422;28;19942;-80
2022/01/10 06:47:35;;;;;;;;;;;;;;;;;;2090188;28;19917;-80
2022/01/10 06:48:35;;;;;;;;;;;;;;;;;;2082137;28;20419;-79
2022/01/10 06:49:38;;;;;;;;;;;;;;;;;;2090460;28;20015;-80
2022/01/10 06:50:38;;;;;;;;;;;;;;;;;;2099228;28;20371;-79
2022/01/10 06:51:39;;;;;;;;;;;;;;;;;;2098964;28;19908;-80
2022/01/10 06:52:39;;;;;;;;;;;;;;;;;;2098986;28;19931;-80
2022/01/10 06:53:39;;;;;;;;;;;;;;;;;;2090222;28;20346;-80
2022/01/10 06:54:39;;;;;;;;;;;;;;;;;;2090390;28;20022;-80
2022/01/10 06:55:40;;;;;;;;;;;;;;;;;;2099152;28;19999;-80
2022/01/10 06:56:40;;;;;;;;;;;;;;;;;;2099049;28;19973;-80
2022/01/10 06:57:41;;;;;;;;;;;;;;;;;;2090107;28;19909;-80
2022/01/10 06:58:41;;;;;;;;;;;;;;;;;;2090283;28;20006;-80
2022/01/10 06:59:41;;;;;;;;;;;;;;;;;;2098968;28;20003;-80
2022/01/10 07:00:43;;;;;;;;;;;;;;;;;;2090214;28;19909;-80
2022/01/10 07:01:44;;;;;;;;;;;;;;;;;;2090422;28;19982;-80
2022/01/10 07:02:44;;;;;;;;;;;;;;;;;;2098968;28;19990;-80
2022/01/10 07:03:44;;;;;;;;;;;;;;;;;;2099051;28;19908;-80
2022/01/10 07:04:45;;;;;;;;;;;;;;;;;;2098861;28;19908;-80
2022/01/10 07:05:45;;;;;;;;;;;;;;;;;;2098903;28;19923;-80